Santa Fe, NM

5:58 AM MDT on April 29, 2017 (GMT -0600)
Santa Fe Municipal | | Change Station

Elev 6348 ft 35.62 °N, 106.09 °W | Updated 5 minutes ago

Snow
Snow Fog
32 °F
Feels Like 26 °F
N
6
Wind Variable Wind from WSW

Today
High -- | Low -- °F
--% Chance of Precip.
Yesterday
High -- | Low -- °F
Precip. -- in
Pressure 29.74 in
Visibility 0.5 miles
Clouds
Windchill 26 °F
Dew Point 32 °F
Humidity 100%
Rainfall 0.00 in
Snow Depth Not available.
6:14 AM 7:49 PM
Waxing Crescent, 13% visible
METAR KSAF 291153Z AUTO 24005KT 1/2SM SN FG VV004 00/00 A2979 RMK AO2 SLP069 P0000 60000 70028 T00000000 10028 20000 53001
Pressure 29.74 in
Visibility 0.5 miles
Clouds
Windchill 26 °F
Dew Point 32 °F
Humidity 100%
Rainfall 0.00 in
Snow Depth Not available.
6:14 AM 7:49 PM
Waxing Crescent, 13% visible
METAR KSAF 291153Z AUTO 24005KT 1/2SM SN FG VV004 00/00 A2979 RMK AO2 SLP069 P0000 60000 70028 T00000000 10028 20000 53001

Get Severe Weather Alerts

Thanks for signing up!

Be on the lookout for a verification email in your inbox.

You'll start receiving the daily forecast at 8 AM.

×

10-Day Weather Forecast

Almanac

Astronomy

Apr. 29, 2017 Rise Set
Actual Time
Civil Twilight
Nautical Twilight
Astronomical Twilight
Moon
Length of Visible Light
Length of Day
Tomorrow will be .
, % of the Moon is Illuminated

Today's Extremes

State Highs State Lows

Community

WunderPhotos

WunderBlog® & News

Nearby

Air Quality

  Air Quality AQ Index Pollutant
Not available.

Snow Depth

Station Depth Elevation

Earthquake Activity

City Distance Mag. Time & Date
Minimum magnitude displayed is 2.5.

Coastal Water Temperatures

Place Temperature

Stations

Nearby Weather Stations

Station Location Temp. Windchill Dew Point Humidity Wind Precip. Elev Updated Type
                   

Watches & Warnings

There are currently no watches in effect.